sensor_id;sensor_type;location;lat;lon;timestamp;pressure;altitude;pressure_sealevel;temperature;humidity
55916;BME280;41826;53.246;-6.670;2023-12-20T00:01:46;101941.56;;;5.94;100.00
55916;BME280;41826;53.246;-6.670;2023-12-20T00:04:11;101939.63;;;5.98;100.00
55916;BME280;41826;53.246;-6.670;2023-12-20T00:06:36;101947.38;;;5.99;100.00
55916;BME280;41826;53.246;-6.670;2023-12-20T00:09:02;101949.72;;;6.04;100.00
55916;BME280;41826;53.246;-6.670;2023-12-20T00:11:27;101925.44;;;6.03;100.00
55916;BME280;41826;53.246;-6.670;2023-12-20T00:13:52;101927.94;;;6.05;100.00
55916;BME280;41826;53.246;-6.670;2023-12-20T00:16:18;101931.47;;;6.04;100.00
55916;BME280;41826;53.246;-6.670;2023-12-20T00:18:43;101930.53;;;6.05;100.00
55916;BME280;41826;53.246;-6.670;2023-12-20T00:21:08;101917.44;;;6.06;100.00
55916;BME280;41826;53.246;-6.670;2023-12-20T00:23:33;101920.97;;;6.05;100.00
55916;BME280;41826;53.246;-6.670;2023-12-20T00:25:59;101902.63;;;6.07;100.00
55916;BME280;41826;53.246;-6.670;2023-12-20T00:28:24;101911.28;;;6.07;100.00
55916;BME280;41826;53.246;-6.670;2023-12-20T00:30:49;101926.09;;;6.07;100.00
55916;BME280;41826;53.246;-6.670;2023-12-20T00:33:14;101922.47;;;6.10;100.00
55916;BME280;41826;53.246;-6.670;2023-12-20T00:35:40;101917.38;;;6.08;100.00
55916;BME280;41826;53.246;-6.670;2023-12-20T00:38:05;101916.34;;;6.11;100.00
55916;BME280;41826;53.246;-6.670;2023-12-20T00:40:32;101911.22;;;6.09;100.00
55916;BME280;41826;53.246;-6.670;2023-12-20T00:42:58;101916.50;;;6.07;100.00
55916;BME280;41826;53.246;-6.670;2023-12-20T00:45:23;101919.03;;;6.09;100.00
55916;BME280;41826;53.246;-6.670;2023-12-20T00:47:48;101905.94;;;6.11;100.00
55916;BME280;41826;53.246;-6.670;2023-12-20T00:50:13;101899.78;;;6.12;100.00
55916;BME280;41826;53.246;-6.670;2023-12-20T00:52:38;101905.94;;;6.11;100.00
55916;BME280;41826;53.246;-6.670;2023-12-20T00:55:04;101902.38;;;6.12;100.00
55916;BME280;41826;53.246;-6.670;2023-12-20T00:57:29;101892.72;;;6.14;100.00
55916;BME280;41826;53.246;-6.670;2023-12-20T00:59:55;101892.13;;;6.08;100.00
55916;BME280;41826;53.246;-6.670;2023-12-20T01:02:21;101894.13;;;6.19;100.00
55916;BME280;41826;53.246;-6.670;2023-12-20T01:04:46;101885.22;;;6.23;100.00
55916;BME280;41826;53.246;-6.670;2023-12-20T01:07:11;101886.81;;;6.26;100.00
55916;BME280;41826;53.246;-6.670;2023-12-20T01:09:37;101889.25;;;6.29;100.00
55916;BME280;41826;53.246;-6.670;2023-12-20T01:12:02;101888.47;;;6.27;100.00
55916;BME280;41826;53.246;-6.670;2023-12-20T01:14:28;101884.97;;;6.28;100.00
55916;BME280;41826;53.246;-6.670;2023-12-20T01:16:53;101876.59;;;6.37;100.00
55916;BME280;41826;53.246;-6.670;2023-12-20T01:19:18;101874.34;;;6.31;100.00
55916;BME280;41826;53.246;-6.670;2023-12-20T01:21:43;101875.19;;;6.32;100.00
55916;BME280;41826;53.246;-6.670;2023-12-20T01:24:08;101872.34;;;6.36;100.00
55916;BME280;41826;53.246;-6.670;2023-12-20T01:26:34;101873.09;;;6.38;100.00
55916;BME280;41826;53.246;-6.670;2023-12-20T01:28:59;101875.84;;;6.35;100.00
55916;BME280;41826;53.246;-6.670;2023-12-20T01:31:24;101870.63;;;6.35;100.00
55916;BME280;41826;53.246;-6.670;2023-12-20T01:33:52;101866.19;;;6.37;100.00
55916;BME280;41826;53.246;-6.670;2023-12-20T01:36:17;101867.19;;;6.35;100.00
55916;BME280;41826;53.246;-6.670;2023-12-20T01:38:42;101873.25;;;6.35;100.00
55916;BME280;41826;53.246;-6.670;2023-12-20T01:41:07;101880.22;;;6.35;100.00
55916;BME280;41826;53.246;-6.670;2023-12-20T01:43:33;101887.16;;;6.36;100.00
55916;BME280;41826;53.246;-6.670;2023-12-20T01:46:00;101876.44;;;6.40;100.00
55916;BME280;41826;53.246;-6.670;2023-12-20T01:48:25;101883.41;;;6.40;100.00
55916;BME280;41826;53.246;-6.670;2023-12-20T01:50:52;101890.66;;;6.35;100.00
55916;BME280;41826;53.246;-6.670;2023-12-20T01:53:19;101873.25;;;6.35;100.00
55916;BME280;41826;53.246;-6.670;2023-12-20T01:55:45;101877.44;;;6.38;100.00
55916;BME280;41826;53.246;-6.670;2023-12-20T01:58:11;101873.31;;;6.49;100.00
55916;BME280;41826;53.246;-6.670;2023-12-20T02:00:37;101861.03;;;6.51;100.00
55916;BME280;41826;53.246;-6.670;2023-12-20T02:03:02;101854.47;;;6.44;100.00
55916;BME280;41826;53.246;-6.670;2023-12-20T02:05:31;101849.06;;;6.47;100.00
55916;BME280;41826;53.246;-6.670;2023-12-20T02:07:57;101858.59;;;6.48;100.00
55916;BME280;41826;53.246;-6.670;2023-12-20T02:10:22;101851.59;;;6.49;100.00
55916;BME280;41826;53.246;-6.670;2023-12-20T02:12:48;101846.00;;;6.55;100.00
55916;BME280;41826;53.246;-6.670;2023-12-20T02:15:13;101848.38;;;6.60;100.00
55916;BME280;41826;53.246;-6.670;2023-12-20T02:17:39;101847.59;;;6.58;100.00
55916;BME280;41826;53.246;-6.670;2023-12-20T02:20:05;101832.97;;;6.55;100.00
55916;BME280;41826;53.246;-6.670;2023-12-20T02:22:30;101852.47;;;6.64;100.00
55916;BME280;41826;53.246;-6.670;2023-12-20T02:24:56;101839.44;;;6.64;100.00
55916;BME280;41826;53.246;-6.670;2023-12-20T02:27:21;101830.31;;;6.71;100.00
55916;BME280;41826;53.246;-6.670;2023-12-20T02:29:48;101814.00;;;6.67;100.00
55916;BME280;41826;53.246;-6.670;2023-12-20T02:32:13;101819.13;;;6.69;100.00
55916;BME280;41826;53.246;-6.670;2023-12-20T02:34:38;101800.50;;;6.75;100.00
55916;BME280;41826;53.246;-6.670;2023-12-20T02:37:04;101832.75;;;6.74;100.00
55916;BME280;41826;53.246;-6.670;2023-12-20T02:39:29;101836.00;;;6.78;100.00
55916;BME280;41826;53.246;-6.670;2023-12-20T02:41:54;101829.75;;;6.80;100.00
55916;BME280;41826;53.246;-6.670;2023-12-20T02:44:20;101819.31;;;6.80;100.00
55916;BME280;41826;53.246;-6.670;2023-12-20T02:46:45;101822.59;;;6.84;100.00
55916;BME280;41826;53.246;-6.670;2023-12-20T02:49:10;101807.66;;;6.86;100.00
55916;BME280;41826;53.246;-6.670;2023-12-20T02:51:35;101816.75;;;6.94;100.00
55916;BME280;41826;53.246;-6.670;2023-12-20T02:54:03;101815.03;;;6.93;100.00
55916;BME280;41826;53.246;-6.670;2023-12-20T02:56:29;101807.22;;;6.93;100.00
55916;BME280;41826;53.246;-6.670;2023-12-20T02:58:54;101812.84;;;7.02;100.00
55916;BME280;41826;53.246;-6.670;2023-12-20T03:01:19;101806.09;;;6.98;100.00
55916;BME280;41826;53.246;-6.670;2023-12-20T03:03:44;101816.16;;;7.04;100.00
55916;BME280;41826;53.246;-6.670;2023-12-20T03:06:10;101818.78;;;7.04;100.00
55916;BME280;41826;53.246;-6.670;2023-12-20T03:08:35;101813.38;;;7.07;100.00
55916;BME280;41826;53.246;-6.670;2023-12-20T03:11:00;101816.72;;;7.09;100.00
55916;BME280;41826;53.246;-6.670;2023-12-20T03:13:25;101810.41;;;7.13;100.00
55916;BME280;41826;53.246;-6.670;2023-12-20T03:15:51;101818.59;;;7.21;100.00
55916;BME280;41826;53.246;-6.670;2023-12-20T03:18:16;101815.97;;;7.21;100.00
55916;BME280;41826;53.246;-6.670;2023-12-20T03:20:41;101810.47;;;7.26;100.00
55916;BME280;41826;53.246;-6.670;2023-12-20T03:23:07;101807.22;;;7.22;100.00
55916;BME280;41826;53.246;-6.670;2023-12-20T03:25:32;101803.78;;;7.22;100.00
55916;BME280;41826;53.246;-6.670;2023-12-20T03:27:57;101799.28;;;7.24;100.00
55916;BME280;41826;53.246;-6.670;2023-12-20T03:30:23;101799.75;;;7.30;100.00
55916;BME280;41826;53.246;-6.670;2023-12-20T03:32:48;101792.75;;;7.31;100.00
55916;BME280;41826;53.246;-6.670;2023-12-20T03:35:13;101789.22;;;7.32;100.00
55916;BME280;41826;53.246;-6.670;2023-12-20T03:37:38;101791.63;;;7.35;100.00
55916;BME280;41826;53.246;-6.670;2023-12-20T03:40:04;101790.81;;;7.34;100.00
55916;BME280;41826;53.246;-6.670;2023-12-20T03:42:29;101803.66;;;7.37;100.00
55916;BME280;41826;53.246;-6.670;2023-12-20T03:44:54;101803.88;;;7.34;100.00
55916;BME280;41826;53.246;-6.670;2023-12-20T03:47:20;101793.31;;;7.36;100.00
55916;BME280;41826;53.246;-6.670;2023-12-20T03:49:45;101789.66;;;7.38;100.00
55916;BME280;41826;53.246;-6.670;2023-12-20T03:52:10;101778.28;;;7.40;100.00
55916;BME280;41826;53.246;-6.670;2023-12-20T03:54:35;101784.22;;;7.42;100.00
55916;BME280;41826;53.246;-6.670;2023-12-20T03:57:01;101761.38;;;7.45;100.00
55916;BME280;41826;53.246;-6.670;2023-12-20T03:59:26;101776.59;;;7.38;100.00
55916;BME280;41826;53.246;-6.670;2023-12-20T04:01:51;101776.13;;;7.46;100.00
55916;BME280;41826;53.246;-6.670;2023-12-20T04:04:17;101777.16;;;7.44;100.00
55916;BME280;41826;53.246;-6.670;2023-12-20T04:06:42;101787.41;;;7.47;100.00
55916;BME280;41826;53.246;-6.670;2023-12-20T04:09:08;101787.22;;;7.50;100.00
55916;BME280;41826;53.246;-6.670;2023-12-20T04:11:37;101779.41;;;7.50;100.00
55916;BME280;41826;53.246;-6.670;2023-12-20T04:14:02;101788.91;;;7.51;100.00
55916;BME280;41826;53.246;-6.670;2023-12-20T04:16:27;101788.91;;;7.51;100.00
55916;BME280;41826;53.246;-6.670;2023-12-20T04:18:52;101793.72;;;7.57;100.00
55916;BME280;41826;53.246;-6.670;2023-12-20T04:21:18;101793.84;;;7.55;100.00
55916;BME280;41826;53.246;-6.670;2023-12-20T04:23:43;101789.53;;;7.54;100.00
55916;BME280;41826;53.246;-6.670;2023-12-20T04:26:08;101800.44;;;7.61;100.00
55916;BME280;41826;53.246;-6.670;2023-12-20T04:28:33;101802.84;;;7.64;100.00
55916;BME280;41826;53.246;-6.670;2023-12-20T04:30:58;101788.75;;;7.67;100.00
55916;BME280;41826;53.246;-6.670;2023-12-20T04:33:24;101789.25;;;7.59;100.00
55916;BME280;41826;53.246;-6.670;2023-12-20T04:35:49;101777.59;;;7.65;100.00
55916;BME280;41826;53.246;-6.670;2023-12-20T04:38:14;101771.88;;;7.72;100.00
55916;BME280;41826;53.246;-6.670;2023-12-20T04:40:40;101771.75;;;7.74;100.00
55916;BME280;41826;53.246;-6.670;2023-12-20T04:43:06;101767.28;;;7.76;100.00
55916;BME280;41826;53.246;-6.670;2023-12-20T04:45:31;101757.94;;;7.72;100.00
55916;BME280;41826;53.246;-6.670;2023-12-20T04:47:56;101758.81;;;7.72;100.00
55916;BME280;41826;53.246;-6.670;2023-12-20T04:50:24;101760.38;;;7.75;100.00
55916;BME280;41826;53.246;-6.670;2023-12-20T04:52:49;101764.75;;;7.74;100.00
55916;BME280;41826;53.246;-6.670;2023-12-20T04:55:15;101766.63;;;7.72;100.00
55916;BME280;41826;53.246;-6.670;2023-12-20T04:57:40;101772.69;;;7.73;100.00
55916;BME280;41826;53.246;-6.670;2023-12-20T05:00:05;101768.94;;;7.77;100.00
55916;BME280;41826;53.246;-6.670;2023-12-20T05:02:33;101764.66;;;7.76;100.00
55916;BME280;41826;53.246;-6.670;2023-12-20T05:04:58;101756.53;;;7.80;100.00
55916;BME280;41826;53.246;-6.670;2023-12-20T05:07:23;101762.59;;;7.81;100.00
55916;BME280;41826;53.246;-6.670;2023-12-20T05:09:49;101755.56;;;7.81;100.00
55916;BME280;41826;53.246;-6.670;2023-12-20T05:12:14;101765.19;;;7.81;100.00
55916;BME280;41826;53.246;-6.670;2023-12-20T05:14:40;101763.53;;;7.80;100.00
55916;BME280;41826;53.246;-6.670;2023-12-20T05:17:05;101757.06;;;7.86;100.00
55916;BME280;41826;53.246;-6.670;2023-12-20T05:19:31;101756.22;;;7.85;100.00
55916;BME280;41826;53.246;-6.670;2023-12-20T05:21:56;101753.69;;;7.84;100.00
55916;BME280;41826;53.246;-6.670;2023-12-20T05:24:21;101746.59;;;7.86;100.00
55916;BME280;41826;53.246;-6.670;2023-12-20T05:26:46;101745.56;;;7.88;100.00
55916;BME280;41826;53.246;-6.670;2023-12-20T05:29:12;101751.22;;;7.95;100.00
55916;BME280;41826;53.246;-6.670;2023-12-20T05:31:37;101754.78;;;7.94;100.00
55916;BME280;41826;53.246;-6.670;2023-12-20T05:34:05;101756.44;;;7.95;100.00
55916;BME280;41826;53.246;-6.670;2023-12-20T05:36:30;101745.59;;;8.01;100.00
55916;BME280;41826;53.246;-6.670;2023-12-20T05:38:55;101747.38;;;8.00;100.00
55916;BME280;41826;53.246;-6.670;2023-12-20T05:41:20;101747.38;;;8.00;100.00
55916;BME280;41826;53.246;-6.670;2023-12-20T05:43:46;101742.97;;;8.01;100.00
55916;BME280;41826;53.246;-6.670;2023-12-20T05:46:12;101744.13;;;7.97;100.00
55916;BME280;41826;53.246;-6.670;2023-12-20T05:48:37;101738.69;;;8.00;100.00
55916;BME280;41826;53.246;-6.670;2023-12-20T05:51:02;101728.22;;;8.00;100.00
55916;BME280;41826;53.246;-6.670;2023-12-20T05:53:27;101733.28;;;8.03;100.00
55916;BME280;41826;53.246;-6.670;2023-12-20T05:55:53;101719.25;;;8.04;100.00
55916;BME280;41826;53.246;-6.670;2023-12-20T05:58:18;101720.72;;;8.08;100.00
55916;BME280;41826;53.246;-6.670;2023-12-20T06:00:43;101721.66;;;8.07;100.00
55916;BME280;41826;53.246;-6.670;2023-12-20T06:03:09;101717.25;;;8.08;100.00
55916;BME280;41826;53.246;-6.670;2023-12-20T06:05:34;101716.53;;;8.06;100.00
55916;BME280;41826;53.246;-6.670;2023-12-20T06:07:59;101692.69;;;8.10;100.00
55916;BME280;41826;53.246;-6.670;2023-12-20T06:10:27;101693.53;;;8.11;100.00
55916;BME280;41826;53.246;-6.670;2023-12-20T06:12:53;101709.09;;;8.12;100.00
55916;BME280;41826;53.246;-6.670;2023-12-20T06:15:18;101708.19;;;8.13;100.00
55916;BME280;41826;53.246;-6.670;2023-12-20T06:17:43;101704.59;;;8.14;100.00
55916;BME280;41826;53.246;-6.670;2023-12-20T06:20:09;101704.59;;;8.14;100.00
55916;BME280;41826;53.246;-6.670;2023-12-20T06:22:35;101708.72;;;8.18;100.00
55916;BME280;41826;53.246;-6.670;2023-12-20T06:25:01;101700.13;;;8.16;100.00
55916;BME280;41826;53.246;-6.670;2023-12-20T06:27:26;101697.72;;;8.13;100.00
55916;BME280;41826;53.246;-6.670;2023-12-20T06:29:51;101705.34;;;8.16;100.00
55916;BME280;41826;53.246;-6.670;2023-12-20T06:32:16;101696.38;;;8.20;100.00
55916;BME280;41826;53.246;-6.670;2023-12-20T06:34:41;101698.25;;;8.18;100.00
55916;BME280;41826;53.246;-6.670;2023-12-20T06:37:07;101689.56;;;8.18;100.00
55916;BME280;41826;53.246;-6.670;2023-12-20T06:39:40;101709.53;;;8.19;100.00
55916;BME280;41826;53.246;-6.670;2023-12-20T06:42:05;101707.34;;;8.25;100.00
55916;BME280;41826;53.246;-6.670;2023-12-20T06:44:33;101707.16;;;8.29;100.00
55916;BME280;41826;53.246;-6.670;2023-12-20T06:47:00;101711.63;;;8.27;100.00
55916;BME280;41826;53.246;-6.670;2023-12-20T06:49:26;101710.69;;;8.28;100.00
55916;BME280;41826;53.246;-6.670;2023-12-20T06:51:53;101716.13;;;8.24;100.00
55916;BME280;41826;53.246;-6.670;2023-12-20T06:54:19;101725.75;;;8.24;100.00
55916;BME280;41826;53.246;-6.670;2023-12-20T06:56:44;101737.06;;;8.24;100.00
55916;BME280;41826;53.246;-6.670;2023-12-20T06:59:09;101735.81;;;8.30;100.00
55916;BME280;41826;53.246;-6.670;2023-12-20T07:01:34;101733.09;;;8.32;100.00
55916;BME280;41826;53.246;-6.670;2023-12-20T07:04:00;101715.81;;;8.29;100.00
55916;BME280;41826;53.246;-6.670;2023-12-20T07:06:25;101703.34;;;8.33;100.00
55916;BME280;41826;53.246;-6.670;2023-12-20T07:08:50;101711.34;;;8.31;100.00
55916;BME280;41826;53.246;-6.670;2023-12-20T07:11:16;101692.81;;;8.34;100.00
55916;BME280;41826;53.246;-6.670;2023-12-20T07:13:41;101704.00;;;8.36;100.00
55916;BME280;41826;53.246;-6.670;2023-12-20T07:16:07;101715.94;;;8.40;100.00
55916;BME280;41826;53.246;-6.670;2023-12-20T07:18:32;101720.34;;;8.40;100.00
55916;BME280;41826;53.246;-6.670;2023-12-20T07:20:57;101714.28;;;8.39;100.00
55916;BME280;41826;53.246;-6.670;2023-12-20T07:23:22;101734.09;;;8.43;100.00
55916;BME280;41826;53.246;-6.670;2023-12-20T07:25:48;101722.06;;;8.41;100.00
55916;BME280;41826;53.246;-6.670;2023-12-20T07:28:13;101723.72;;;8.42;100.00
55916;BME280;41826;53.246;-6.670;2023-12-20T07:30:38;101720.88;;;8.45;100.00
55916;BME280;41826;53.246;-6.670;2023-12-20T07:33:04;101705.41;;;8.42;100.00
55916;BME280;41826;53.246;-6.670;2023-12-20T07:35:29;101697.31;;;8.45;100.00
55916;BME280;41826;53.246;-6.670;2023-12-20T07:37:54;101683.63;;;8.41;100.00
55916;BME280;41826;53.246;-6.670;2023-12-20T07:40:20;101700.16;;;8.42;100.00
55916;BME280;41826;53.246;-6.670;2023-12-20T07:42:45;101697.53;;;8.42;100.00
55916;BME280;41826;53.246;-6.670;2023-12-20T07:45:10;101686.03;;;8.44;100.00
55916;BME280;41826;53.246;-6.670;2023-12-20T07:47:36;101680.59;;;8.48;100.00
55916;BME280;41826;53.246;-6.670;2023-12-20T07:50:02;101672.94;;;8.44;100.00
55916;BME280;41826;53.246;-6.670;2023-12-20T07:52:27;101660.47;;;8.48;100.00
55916;BME280;41826;53.246;-6.670;2023-12-20T07:54:53;101670.75;;;8.51;100.00
55916;BME280;41826;53.246;-6.670;2023-12-20T07:57:18;101672.63;;;8.49;100.00
55916;BME280;41826;53.246;-6.670;2023-12-20T07:59:43;101663.00;;;8.50;100.00
55916;BME280;41826;53.246;-6.670;2023-12-20T08:02:09;101660.28;;;8.51;100.00
55916;BME280;41826;53.246;-6.670;2023-12-20T08:04:34;101642.81;;;8.52;100.00
55916;BME280;41826;53.246;-6.670;2023-12-20T08:06:59;101655.75;;;8.53;100.00
55916;BME280;41826;53.246;-6.670;2023-12-20T08:09:25;101672.41;;;8.52;100.00
55916;BME280;41826;53.246;-6.670;2023-12-20T08:11:50;101671.47;;;8.53;100.00
55916;BME280;41826;53.246;-6.670;2023-12-20T08:14:16;101665.31;;;8.54;100.00
55916;BME280;41826;53.246;-6.670;2023-12-20T08:16:41;101648.03;;;8.52;100.00
55916;BME280;41826;53.246;-6.670;2023-12-20T08:19:06;101634.13;;;8.51;100.00
55916;BME280;41826;53.246;-6.670;2023-12-20T08:21:31;101656.09;;;8.61;100.00
55916;BME280;41826;53.246;-6.670;2023-12-20T08:23:57;101655.88;;;8.64;100.00
55916;BME280;41826;53.246;-6.670;2023-12-20T08:26:22;101639.09;;;8.67;100.00
55916;BME280;41826;53.246;-6.670;2023-12-20T08:28:49;101659.22;;;8.66;100.00
55916;BME280;41826;53.246;-6.670;2023-12-20T08:31:14;101669.91;;;8.63;100.00
55916;BME280;41826;53.246;-6.670;2023-12-20T08:33:41;101661.72;;;8.68;100.00
55916;BME280;41826;53.246;-6.670;2023-12-20T08:36:06;101676.38;;;8.71;100.00
55916;BME280;41826;53.246;-6.670;2023-12-20T08:38:31;101668.63;;;8.69;100.00
55916;BME280;41826;53.246;-6.670;2023-12-20T08:40:56;101687.06;;;8.67;100.00
55916;BME280;41826;53.246;-6.670;2023-12-20T08:43:22;101692.28;;;8.67;100.00
55916;BME280;41826;53.246;-6.670;2023-12-20T08:45:47;101693.25;;;8.66;100.00
55916;BME280;41826;53.246;-6.670;2023-12-20T08:48:12;101681.59;;;8.71;100.00
55916;BME280;41826;53.246;-6.670;2023-12-20T08:50:37;101678.97;;;8.71;100.00
55916;BME280;41826;53.246;-6.670;2023-12-20T08:53:03;101683.38;;;8.70;100.00
55916;BME280;41826;53.246;-6.670;2023-12-20T08:55:29;101675.44;;;8.72;100.00
55916;BME280;41826;53.246;-6.670;2023-12-20T08:57:55;101668.41;;;8.72;100.00
55916;BME280;41826;53.246;-6.670;2023-12-20T09:00:21;101646.41;;;8.75;100.00
55916;BME280;41826;53.246;-6.670;2023-12-20T09:02:49;101649.03;;;8.75;100.00
55916;BME280;41826;53.246;-6.670;2023-12-20T09:05:14;101650.19;;;8.71;100.00
55916;BME280;41826;53.246;-6.670;2023-12-20T09:07:39;101640.34;;;8.74;100.00
55916;BME280;41826;53.246;-6.670;2023-12-20T09:10:05;101639.41;;;8.75;100.00
55916;BME280;41826;53.246;-6.670;2023-12-20T09:12:30;101635.94;;;8.75;100.00
55916;BME280;41826;53.246;-6.670;2023-12-20T09:14:55;101637.19;;;8.82;100.00
55916;BME280;41826;53.246;-6.670;2023-12-20T09:17:21;101632.19;;;8.79;100.00
55916;BME280;41826;53.246;-6.670;2023-12-20T09:19:48;101624.31;;;8.79;100.00
55916;BME280;41826;53.246;-6.670;2023-12-20T09:22:13;101598.84;;;8.81;100.00
55916;BME280;41826;53.246;-6.670;2023-12-20T09:24:38;101595.06;;;8.85;100.00
55916;BME280;41826;53.246;-6.670;2023-12-20T09:27:04;101594.25;;;8.84;100.00
55916;BME280;41826;53.246;-6.670;2023-12-20T09:29:29;101608.50;;;8.80;100.00
55916;BME280;41826;53.246;-6.670;2023-12-20T09:31:55;101593.50;;;8.82;100.00
55916;BME280;41826;53.246;-6.670;2023-12-20T09:34:20;101614.47;;;8.82;100.00
55916;BME280;41826;53.246;-6.670;2023-12-20T09:36:47;101612.34;;;8.87;100.00
55916;BME280;41826;53.246;-6.670;2023-12-20T09:39:17;101609.81;;;8.86;100.00
55916;BME280;41826;53.246;-6.670;2023-12-20T09:42:03;101599.34;;;8.86;100.00
55916;BME280;41826;53.246;-6.670;2023-12-20T09:44:28;101587.00;;;8.88;100.00
55916;BME280;41826;53.246;-6.670;2023-12-20T09:46:54;101564.50;;;8.85;100.00
55916;BME280;41826;53.246;-6.670;2023-12-20T09:49:20;101567.75;;;8.89;100.00
55916;BME280;41826;53.246;-6.670;2023-12-20T09:51:46;101577.25;;;8.90;100.00
55916;BME280;41826;53.246;-6.670;2023-12-20T09:54:15;101586.66;;;8.93;100.00
55916;BME280;41826;53.246;-6.670;2023-12-20T09:56:41;101577.03;;;8.93;100.00
55916;BME280;41826;53.246;-6.670;2023-12-20T09:59:06;101572.41;;;8.97;100.00
55916;BME280;41826;53.246;-6.670;2023-12-20T10:01:32;101566.56;;;8.93;100.00
55916;BME280;41826;53.246;-6.670;2023-12-20T10:03:58;101565.41;;;8.97;100.00
55916;BME280;41826;53.246;-6.670;2023-12-20T10:06:25;101557.75;;;8.94;100.00
55916;BME280;41826;53.246;-6.670;2023-12-20T10:08:50;101545.16;;;8.99;100.00
55916;BME280;41826;53.246;-6.670;2023-12-20T10:11:15;101551.34;;;8.98;100.00
55916;BME280;41826;53.246;-6.670;2023-12-20T10:13:41;101553.13;;;8.98;100.00
55916;BME280;41826;53.246;-6.670;2023-12-20T10:16:06;101540.75;;;9.00;100.00
55916;BME280;41826;53.246;-6.670;2023-12-20T10:18:33;101539.19;;;8.97;100.00
55916;BME280;41826;53.246;-6.670;2023-12-20T10:20:58;101533.72;;;9.00;100.00
55916;BME280;41826;53.246;-6.670;2023-12-20T10:23:23;101530.78;;;9.05;100.00
55916;BME280;41826;53.246;-6.670;2023-12-20T10:26:01;101510.66;;;9.05;100.00
55916;BME280;41826;53.246;-6.670;2023-12-20T10:28:26;101517.06;;;9.01;100.00
55916;BME280;41826;53.246;-6.670;2023-12-20T10:30:54;101551.50;;;9.08;100.00
55916;BME280;41826;53.246;-6.670;2023-12-20T10:33:26;101564.84;;;9.05;100.00
55916;BME280;41826;53.246;-6.670;2023-12-20T10:35:52;101534.97;;;9.07;100.00
55916;BME280;41826;53.246;-6.670;2023-12-20T10:38:17;101540.31;;;9.06;100.00
55916;BME280;41826;53.246;-6.670;2023-12-20T10:40:43;101538.41;;;9.08;100.00
55916;BME280;41826;53.246;-6.670;2023-12-20T10:43:10;101551.63;;;9.06;100.00
55916;BME280;41826;53.246;-6.670;2023-12-20T10:45:35;101547.44;;;9.04;100.00
55916;BME280;41826;53.246;-6.670;2023-12-20T10:48:01;101537.81;;;9.04;100.00
55916;BME280;41826;53.246;-6.670;2023-12-20T10:50:27;101547.44;;;9.04;100.00
55916;BME280;41826;53.246;-6.670;2023-12-20T10:52:54;101548.16;;;9.06;100.00
55916;BME280;41826;53.246;-6.670;2023-12-20T10:55:21;101546.16;;;9.09;100.00
55916;BME280;41826;53.246;-6.670;2023-12-20T10:57:46;101540.69;;;9.13;100.00
55916;BME280;41826;53.246;-6.670;2023-12-20T11:00:15;101545.53;;;9.06;100.00
55916;BME280;41826;53.246;-6.670;2023-12-20T11:02:42;101531.19;;;9.11;100.00
55916;BME280;41826;53.246;-6.670;2023-12-20T11:07:38;101526.53;;;9.15;100.00
55916;BME280;41826;53.246;-6.670;2023-12-20T11:14:59;101519.28;;;9.19;100.00
55916;BME280;41826;53.246;-6.670;2023-12-20T11:17:29;101531.69;;;9.17;100.00
55916;BME280;41826;53.246;-6.670;2023-12-20T11:22:23;101506.06;;;9.20;100.00
55916;BME280;41826;53.246;-6.670;2023-12-20T11:24:50;101513.69;;;9.23;100.00
55916;BME280;41826;53.246;-6.670;2023-12-20T11:27:15;101506.91;;;9.21;100.00
55916;BME280;41826;53.246;-6.670;2023-12-20T11:29:40;101494.53;;;9.23;100.00
55916;BME280;41826;53.246;-6.670;2023-12-20T11:34:56;101469.28;;;9.22;100.00
55916;BME280;41826;53.246;-6.670;2023-12-20T11:37:28;101478.09;;;9.21;100.00
55916;BME280;41826;53.246;-6.670;2023-12-20T11:39:56;101483.47;;;9.19;100.00
55916;BME280;41826;53.246;-6.670;2023-12-20T11:42:25;101482.88;;;9.27;100.00
55916;BME280;41826;53.246;-6.670;2023-12-20T11:44:50;101471.19;;;9.31;100.00
55916;BME280;41826;53.246;-6.670;2023-12-20T11:47:15;101469.06;;;9.25;100.00
55916;BME280;41826;53.246;-6.670;2023-12-20T11:49:41;101466.53;;;9.23;100.00
55916;BME280;41826;53.246;-6.670;2023-12-20T11:52:06;101471.44;;;9.28;100.00
55916;BME280;41826;53.246;-6.670;2023-12-20T11:54:32;101452.75;;;9.32;100.00
55916;BME280;41826;53.246;-6.670;2023-12-20T11:56:57;101444.50;;;9.26;100.00
55916;BME280;41826;53.246;-6.670;2023-12-20T11:59:23;101442.22;;;9.21;100.00
55916;BME280;41826;53.246;-6.670;2023-12-20T12:01:48;101466.19;;;9.28;100.00
55916;BME280;41826;53.246;-6.670;2023-12-20T12:04:15;101458.72;;;9.35;100.00
55916;BME280;41826;53.246;-6.670;2023-12-20T12:06:42;101438.69;;;9.33;100.00
55916;BME280;41826;53.246;-6.670;2023-12-20T12:09:07;101442.84;;;9.36;100.00
55916;BME280;41826;53.246;-6.670;2023-12-20T12:11:33;101445.63;;;9.35;100.00
55916;BME280;41826;53.246;-6.670;2023-12-20T12:13:58;101447.50;;;9.32;100.00
55916;BME280;41826;53.246;-6.670;2023-12-20T12:16:24;101447.84;;;9.39;100.00
55916;BME280;41826;53.246;-6.670;2023-12-20T12:18:56;101444.41;;;9.39;100.00
55916;BME280;41826;53.246;-6.670;2023-12-20T12:21:22;101439.16;;;9.39;100.00
55916;BME280;41826;53.246;-6.670;2023-12-20T12:23:47;101453.59;;;9.44;100.00
55916;BME280;41826;53.246;-6.670;2023-12-20T12:26:13;101447.41;;;9.45;100.00
55916;BME280;41826;53.246;-6.670;2023-12-20T12:28:41;101448.59;;;9.41;100.00
55916;BME280;41826;53.246;-6.670;2023-12-20T12:31:07;101453.38;;;9.47;100.00
55916;BME280;41826;53.246;-6.670;2023-12-20T12:33:32;101453.38;;;9.47;100.00
55916;BME280;41826;53.246;-6.670;2023-12-20T12:35:57;101440.03;;;9.50;100.00
55916;BME280;41826;53.246;-6.670;2023-12-20T12:38:26;101438.22;;;9.51;100.00
55916;BME280;41826;53.246;-6.670;2023-12-20T12:40:51;101433.72;;;9.53;100.00
55916;BME280;41826;53.246;-6.670;2023-12-20T12:43:18;101421.19;;;9.57;100.00
55916;BME280;41826;53.246;-6.670;2023-12-20T12:45:43;101421.91;;;9.59;100.00